sensor_id;sensor_type;location;lat;lon;timestamp;P1;durP1;ratioP1;P2;durP2;ratioP2
78290;SDS011;67543;45.494;9.100;2023-03-19T07:20:00;38.15;;;20.15;;
78290;SDS011;67543;45.494;9.100;2023-03-19T07:22:25;34.08;;;20.98;;
78290;SDS011;67543;45.494;9.100;2023-03-19T07:24:51;33.72;;;19.55;;
78290;SDS011;67543;45.494;9.100;2023-03-19T07:27:16;30.37;;;19.57;;
78290;SDS011;67543;45.494;9.100;2023-03-19T07:29:42;34.75;;;19.90;;
78290;SDS011;67543;45.494;9.100;2023-03-19T07:32:08;30.65;;;19.35;;
78290;SDS011;67543;45.494;9.100;2023-03-19T07:34:34;31.25;;;19.30;;
78290;SDS011;67543;45.494;9.100;2023-03-19T07:37:00;32.25;;;19.80;;
78290;SDS011;67543;45.494;9.100;2023-03-19T07:39:25;31.55;;;18.90;;
78290;SDS011;67543;45.494;9.100;2023-03-19T07:41:51;31.17;;;19.20;;
78290;SDS011;67543;45.494;9.100;2023-03-19T07:44:16;31.25;;;20.73;;
78290;SDS011;67543;45.494;9.100;2023-03-19T07:46:42;30.33;;;20.38;;
78290;SDS011;67543;45.494;9.100;2023-03-19T07:49:07;33.10;;;18.30;;
78290;SDS011;67543;45.494;9.100;2023-03-19T07:51:32;30.40;;;19.98;;
78290;SDS011;67543;45.494;9.100;2023-03-19T07:53:58;31.83;;;19.92;;
78290;SDS011;67543;45.494;9.100;2023-03-19T07:56:23;33.75;;;18.98;;
78290;SDS011;67543;45.494;9.100;2023-03-19T07:58:49;32.30;;;20.10;;
78290;SDS011;67543;45.494;9.100;2023-03-19T08:01:15;30.25;;;20.20;;
78290;SDS011;67543;45.494;9.100;2023-03-19T08:03:41;30.83;;;18.63;;
78290;SDS011;67543;45.494;9.100;2023-03-19T08:06:06;30.42;;;19.75;;
78290;SDS011;67543;45.494;9.100;2023-03-19T08:08:31;31.57;;;18.13;;
78290;SDS011;67543;45.494;9.100;2023-03-19T08:10:58;31.63;;;20.50;;
78290;SDS011;67543;45.494;9.100;2023-03-19T08:13:25;28.23;;;18.33;;
78290;SDS011;67543;45.494;9.100;2023-03-19T08:15:50;27.00;;;18.05;;
78290;SDS011;67543;45.494;9.100;2023-03-19T08:18:17;29.77;;;18.98;;
78290;SDS011;67543;45.494;9.100;2023-03-19T08:20:43;32.42;;;19.27;;
78290;SDS011;67543;45.494;9.100;2023-03-19T08:23:09;28.83;;;18.02;;
78290;SDS011;67543;45.494;9.100;2023-03-19T08:25:36;29.52;;;18.42;;
78290;SDS011;67543;45.494;9.100;2023-03-19T08:28:02;28.30;;;18.92;;
78290;SDS011;67543;45.494;9.100;2023-03-19T08:30:27;28.05;;;18.58;;
78290;SDS011;67543;45.494;9.100;2023-03-19T08:32:52;30.45;;;17.80;;
78290;SDS011;67543;45.494;9.100;2023-03-19T08:35:18;26.40;;;18.08;;
78290;SDS011;67543;45.494;9.100;2023-03-19T08:37:43;28.13;;;18.05;;
78290;SDS011;67543;45.494;9.100;2023-03-19T08:40:09;26.55;;;16.90;;
78290;SDS011;67543;45.494;9.100;2023-03-19T08:42:35;28.92;;;17.15;;
78290;SDS011;67543;45.494;9.100;2023-03-19T08:45:03;27.95;;;17.08;;
78290;SDS011;67543;45.494;9.100;2023-03-19T08:47:28;25.67;;;16.02;;
78290;SDS011;67543;45.494;9.100;2023-03-19T08:49:54;31.40;;;16.10;;
78290;SDS011;67543;45.494;9.100;2023-03-19T08:52:19;24.48;;;14.95;;
78290;SDS011;67543;45.494;9.100;2023-03-19T08:54:45;23.33;;;16.92;;
78290;SDS011;67543;45.494;9.100;2023-03-19T08:57:10;23.23;;;16.08;;
78290;SDS011;67543;45.494;9.100;2023-03-19T08:59:36;24.00;;;16.27;;
78290;SDS011;67543;45.494;9.100;2023-03-19T09:02:02;27.23;;;16.17;;
78290;SDS011;67543;45.494;9.100;2023-03-19T09:04:29;23.92;;;15.90;;
78290;SDS011;67543;45.494;9.100;2023-03-19T09:06:55;24.35;;;15.18;;
78290;SDS011;67543;45.494;9.100;2023-03-19T09:09:23;21.38;;;13.43;;
78290;SDS011;67543;45.494;9.100;2023-03-19T09:11:50;19.48;;;12.90;;
78290;SDS011;67543;45.494;9.100;2023-03-19T09:14:16;20.73;;;12.60;;
78290;SDS011;67543;45.494;9.100;2023-03-19T09:16:43;20.50;;;14.27;;
78290;SDS011;67543;45.494;9.100;2023-03-19T09:19:09;23.13;;;14.32;;
78290;SDS011;67543;45.494;9.100;2023-03-19T09:21:35;24.45;;;14.43;;
78290;SDS011;67543;45.494;9.100;2023-03-19T09:24:01;23.30;;;14.75;;
78290;SDS011;67543;45.494;9.100;2023-03-19T09:26:27;23.67;;;13.68;;
78290;SDS011;67543;45.494;9.100;2023-03-19T09:28:52;26.05;;;15.68;;
78290;SDS011;67543;45.494;9.100;2023-03-19T09:31:18;23.48;;;15.05;;
78290;SDS011;67543;45.494;9.100;2023-03-19T09:33:43;20.67;;;15.05;;
78290;SDS011;67543;45.494;9.100;2023-03-19T09:36:08;22.92;;;16.08;;
78290;SDS011;67543;45.494;9.100;2023-03-19T09:38:34;23.45;;;16.40;;
78290;SDS011;67543;45.494;9.100;2023-03-19T09:44:04;23.10;;;16.42;;
78290;SDS011;67543;45.494;9.100;2023-03-19T09:46:53;25.83;;;15.52;;
78290;SDS011;67543;45.494;9.100;2023-03-19T09:49:24;19.33;;;12.40;;
78290;SDS011;67543;45.494;9.100;2023-03-19T09:51:53;18.77;;;10.88;;
78290;SDS011;67543;45.494;9.100;2023-03-19T09:54:43;23.25;;;11.82;;
78290;SDS011;67543;45.494;9.100;2023-03-19T09:57:12;17.08;;;10.50;;
78290;SDS011;67543;45.494;9.100;2023-03-19T09:59:38;14.30;;;9.73;;
78290;SDS011;67543;45.494;9.100;2023-03-19T10:11:12;14.73;;;9.00;;
78290;SDS011;67543;45.494;9.100;2023-03-19T10:16:21;17.48;;;10.50;;
78290;SDS011;67543;45.494;9.100;2023-03-19T10:18:49;17.90;;;9.10;;
78290;SDS011;67543;45.494;9.100;2023-03-19T10:24:05;13.93;;;7.57;;
78290;SDS011;67543;45.494;9.100;2023-03-19T10:26:33;13.85;;;9.43;;
78290;SDS011;67543;45.494;9.100;2023-03-19T10:29:06;14.15;;;9.20;;
78290;SDS011;67543;45.494;9.100;2023-03-19T10:36:58;17.42;;;11.20;;
78290;SDS011;67543;45.494;9.100;2023-03-19T10:39:29;14.45;;;10.43;;
78290;SDS011;67543;45.494;9.100;2023-03-19T10:41:59;17.98;;;12.05;;
78290;SDS011;67543;45.494;9.100;2023-03-19T10:44:29;20.33;;;12.27;;
78290;SDS011;67543;45.494;9.100;2023-03-19T10:46:56;17.10;;;12.48;;
78290;SDS011;67543;45.494;9.100;2023-03-19T10:49:23;19.67;;;13.43;;
78290;SDS011;67543;45.494;9.100;2023-03-19T10:51:48;18.95;;;13.18;;
78290;SDS011;67543;45.494;9.100;2023-03-19T10:54:17;20.13;;;13.00;;
78290;SDS011;67543;45.494;9.100;2023-03-19T10:56:46;20.92;;;11.93;;
78290;SDS011;67543;45.494;9.100;2023-03-19T10:59:22;17.85;;;12.20;;
78290;SDS011;67543;45.494;9.100;2023-03-19T11:01:58;20.95;;;12.23;;
78290;SDS011;67543;45.494;9.100;2023-03-19T11:04:26;20.85;;;12.40;;
78290;SDS011;67543;45.494;9.100;2023-03-19T11:06:54;16.35;;;12.02;;
78290;SDS011;67543;45.494;9.100;2023-03-19T11:09:33;19.50;;;11.15;;
78290;SDS011;67543;45.494;9.100;2023-03-19T11:12:12;16.42;;;10.40;;
78290;SDS011;67543;45.494;9.100;2023-03-19T11:14:41;18.35;;;11.18;;
78290;SDS011;67543;45.494;9.100;2023-03-19T11:19:51;17.13;;;11.98;;
78290;SDS011;67543;45.494;9.100;2023-03-19T11:22:26;17.02;;;11.23;;
78290;SDS011;67543;45.494;9.100;2023-03-19T11:24:56;15.85;;;9.82;;
78290;SDS011;67543;45.494;9.100;2023-03-19T11:27:26;14.27;;;9.40;;
78290;SDS011;67543;45.494;9.100;2023-03-19T11:29:52;12.70;;;9.50;;
78290;SDS011;67543;45.494;9.100;2023-03-19T11:32:24;18.92;;;10.10;;
78290;SDS011;67543;45.494;9.100;2023-03-19T11:35:07;14.10;;;8.63;;
78290;SDS011;67543;45.494;9.100;2023-03-19T11:37:49;13.32;;;8.60;;
78290;SDS011;67543;45.494;9.100;2023-03-19T11:59:14;11.23;;;7.78;;
78290;SDS011;67543;45.494;9.100;2023-03-19T12:07:24;13.52;;;8.57;;
78290;SDS011;67543;45.494;9.100;2023-03-19T12:31:51;17.77;;;10.30;;
78290;SDS011;67543;45.494;9.100;2023-03-19T12:42:39;17.42;;;11.30;;
78290;SDS011;67543;45.494;9.100;2023-03-19T12:45:18;14.88;;;11.23;;
78290;SDS011;67543;45.494;9.100;2023-03-19T12:47:46;20.55;;;12.73;;
78290;SDS011;67543;45.494;9.100;2023-03-19T12:50:13;18.08;;;13.18;;
78290;SDS011;67543;45.494;9.100;2023-03-19T12:52:49;17.55;;;12.50;;
78290;SDS011;67543;45.494;9.100;2023-03-19T12:57:46;15.65;;;12.13;;
78290;SDS011;67543;45.494;9.100;2023-03-19T13:00:20;19.83;;;13.02;;
78290;SDS011;67543;45.494;9.100;2023-03-19T13:02:50;19.95;;;12.75;;
78290;SDS011;67543;45.494;9.100;2023-03-19T13:08:40;22.02;;;13.93;;
78290;SDS011;67543;45.494;9.100;2023-03-19T13:11:12;23.42;;;15.05;;
78290;SDS011;67543;45.494;9.100;2023-03-19T13:13:44;22.90;;;13.48;;
78290;SDS011;67543;45.494;9.100;2023-03-19T13:16:23;19.50;;;13.77;;
78290;SDS011;67543;45.494;9.100;2023-03-19T13:19:01;20.92;;;13.52;;
78290;SDS011;67543;45.494;9.100;2023-03-19T13:21:33;19.45;;;13.48;;
78290;SDS011;67543;45.494;9.100;2023-03-19T13:24:08;20.15;;;12.77;;
78290;SDS011;67543;45.494;9.100;2023-03-19T13:26:40;18.83;;;11.77;;
78290;SDS011;67543;45.494;9.100;2023-03-19T13:29:19;15.32;;;11.98;;
78290;SDS011;67543;45.494;9.100;2023-03-19T13:31:46;17.17;;;12.65;;
78290;SDS011;67543;45.494;9.100;2023-03-19T13:36:40;23.20;;;12.27;;
78290;SDS011;67543;45.494;9.100;2023-03-19T13:39:17;20.38;;;14.63;;
78290;SDS011;67543;45.494;9.100;2023-03-19T13:41:49;20.73;;;13.00;;
78290;SDS011;67543;45.494;9.100;2023-03-19T13:46:59;15.27;;;9.82;;
78290;SDS011;67543;45.494;9.100;2023-03-19T13:51:53;21.70;;;13.50;;
78290;SDS011;67543;45.494;9.100;2023-03-19T13:54:20;18.23;;;11.95;;
78290;SDS011;67543;45.494;9.100;2023-03-19T13:59:36;16.20;;;10.73;;
78290;SDS011;67543;45.494;9.100;2023-03-19T14:02:48;17.13;;;11.65;;
78290;SDS011;67543;45.494;9.100;2023-03-19T14:07:21;17.70;;;10.70;;
78290;SDS011;67543;45.494;9.100;2023-03-19T14:10:03;17.20;;;9.48;;
78290;SDS011;67543;45.494;9.100;2023-03-19T14:12:37;16.67;;;10.68;;
78290;SDS011;67543;45.494;9.100;2023-03-19T14:20:03;13.23;;;9.50;;
78290;SDS011;67543;45.494;9.100;2023-03-19T14:22:37;17.88;;;9.75;;
78290;SDS011;67543;45.494;9.100;2023-03-19T14:25:18;12.75;;;9.00;;
78290;SDS011;67543;45.494;9.100;2023-03-19T14:28:08;14.38;;;9.38;;
78290;SDS011;67543;45.494;9.100;2023-03-19T14:30:44;13.07;;;8.80;;
78290;SDS011;67543;45.494;9.100;2023-03-19T14:33:18;13.48;;;9.13;;
78290;SDS011;67543;45.494;9.100;2023-03-19T14:35:47;15.73;;;10.18;;
78290;SDS011;67543;45.494;9.100;2023-03-19T14:38:15;12.73;;;8.48;;
78290;SDS011;67543;45.494;9.100;2023-03-19T14:40:52;12.15;;;8.88;;
78290;SDS011;67543;45.494;9.100;2023-03-19T14:46:30;15.98;;;8.43;;
78290;SDS011;67543;45.494;9.100;2023-03-19T14:57:05;11.43;;;8.75;;
78290;SDS011;67543;45.494;9.100;2023-03-19T14:59:35;13.52;;;7.50;;
78290;SDS011;67543;45.494;9.100;2023-03-19T15:02:03;10.25;;;7.85;;
78290;SDS011;67543;45.494;9.100;2023-03-19T15:04:30;9.95;;;6.78;;
78290;SDS011;67543;45.494;9.100;2023-03-19T15:06:57;9.00;;;6.57;;
78290;SDS011;67543;45.494;9.100;2023-03-19T15:09:24;10.27;;;6.93;;
78290;SDS011;67543;45.494;9.100;2023-03-19T15:12:02;11.10;;;7.25;;
78290;SDS011;67543;45.494;9.100;2023-03-19T15:18:13;12.55;;;6.68;;
78290;SDS011;67543;45.494;9.100;2023-03-19T15:20:43;10.65;;;7.28;;
78290;SDS011;67543;45.494;9.100;2023-03-19T15:23:11;12.02;;;6.78;;
78290;SDS011;67543;45.494;9.100;2023-03-19T15:25:45;11.63;;;6.70;;
78290;SDS011;67543;45.494;9.100;2023-03-19T15:28:15;12.25;;;6.70;;
78290;SDS011;67543;45.494;9.100;2023-03-19T15:30:43;10.30;;;6.88;;
78290;SDS011;67543;45.494;9.100;2023-03-19T15:33:19;12.23;;;6.93;;
78290;SDS011;67543;45.494;9.100;2023-03-19T15:35:50;9.57;;;6.57;;
78290;SDS011;67543;45.494;9.100;2023-03-19T15:38:18;10.00;;;6.30;;
78290;SDS011;67543;45.494;9.100;2023-03-19T15:40:44;11.98;;;6.38;;
78290;SDS011;67543;45.494;9.100;2023-03-19T15:43:10;10.32;;;6.32;;
78290;SDS011;67543;45.494;9.100;2023-03-19T15:45:36;9.18;;;6.78;;
78290;SDS011;67543;45.494;9.100;2023-03-19T15:48:04;11.80;;;6.75;;
78290;SDS011;67543;45.494;9.100;2023-03-19T15:50:34;8.60;;;6.20;;
78290;SDS011;67543;45.494;9.100;2023-03-19T15:53:02;10.35;;;6.60;;
78290;SDS011;67543;45.494;9.100;2023-03-19T15:55:31;11.30;;;6.63;;
78290;SDS011;67543;45.494;9.100;2023-03-19T15:58:02;9.43;;;6.85;;
78290;SDS011;67543;45.494;9.100;2023-03-19T16:00:30;13.40;;;6.63;;
78290;SDS011;67543;45.494;9.100;2023-03-19T16:02:56;10.23;;;7.30;;
78290;SDS011;67543;45.494;9.100;2023-03-19T16:05:25;11.40;;;7.80;;
78290;SDS011;67543;45.494;9.100;2023-03-19T16:08:02;10.13;;;6.90;;
78290;SDS011;67543;45.494;9.100;2023-03-19T16:10:35;12.77;;;6.95;;
78290;SDS011;67543;45.494;9.100;2023-03-19T16:15:53;12.70;;;7.10;;
78290;SDS011;67543;45.494;9.100;2023-03-19T16:18:24;12.95;;;6.53;;
78290;SDS011;67543;45.494;9.100;2023-03-19T16:21:36;11.88;;;7.30;;
78290;SDS011;67543;45.494;9.100;2023-03-19T16:26:52;8.05;;;5.32;;
78290;SDS011;67543;45.494;9.100;2023-03-19T16:29:27;9.95;;;5.35;;
78290;SDS011;67543;45.494;9.100;2023-03-19T16:31:58;7.70;;;5.18;;
78290;SDS011;67543;45.494;9.100;2023-03-19T16:34:36;12.48;;;5.95;;
78290;SDS011;67543;45.494;9.100;2023-03-19T16:39:59;8.88;;;5.80;;
78290;SDS011;67543;45.494;9.100;2023-03-19T16:45:00;18.60;;;10.27;;
78290;SDS011;67543;45.494;9.100;2023-03-19T16:47:38;17.75;;;10.98;;
78290;SDS011;67543;45.494;9.100;2023-03-19T16:50:03;9.15;;;6.95;;
78290;SDS011;67543;45.494;9.100;2023-03-19T16:52:29;7.75;;;5.90;;
78290;SDS011;67543;45.494;9.100;2023-03-19T16:54:55;8.27;;;5.95;;
78290;SDS011;67543;45.494;9.100;2023-03-19T16:57:22;10.88;;;6.63;;
78290;SDS011;67543;45.494;9.100;2023-03-19T16:59:48;11.45;;;6.15;;
78290;SDS011;67543;45.494;9.100;2023-03-19T17:02:14;10.00;;;6.15;;
78290;SDS011;67543;45.494;9.100;2023-03-19T17:04:41;10.43;;;6.80;;
78290;SDS011;67543;45.494;9.100;2023-03-19T17:07:07;20.88;;;13.80;;
78290;SDS011;67543;45.494;9.100;2023-03-19T17:09:32;15.75;;;7.78;;
78290;SDS011;67543;45.494;9.100;2023-03-19T17:11:58;8.18;;;5.60;;
78290;SDS011;67543;45.494;9.100;2023-03-19T17:14:25;8.65;;;5.70;;
78290;SDS011;67543;45.494;9.100;2023-03-19T17:16:50;12.35;;;6.05;;
78290;SDS011;67543;45.494;9.100;2023-03-19T17:19:17;12.65;;;7.53;;
78290;SDS011;67543;45.494;9.100;2023-03-19T17:21:46;13.07;;;8.68;;
78290;SDS011;67543;45.494;9.100;2023-03-19T17:24:20;15.60;;;9.82;;
78290;SDS011;67543;45.494;9.100;2023-03-19T17:26:56;12.15;;;9.32;;
78290;SDS011;67543;45.494;9.100;2023-03-19T17:29:23;16.80;;;10.32;;
78290;SDS011;67543;45.494;9.100;2023-03-19T17:31:50;19.38;;;10.45;;
78290;SDS011;67543;45.494;9.100;2023-03-19T17:34:18;17.15;;;11.35;;
78290;SDS011;67543;45.494;9.100;2023-03-19T17:36:53;17.88;;;11.77;;
78290;SDS011;67543;45.494;9.100;2023-03-19T17:39:20;17.63;;;11.43;;
78290;SDS011;67543;45.494;9.100;2023-03-19T17:41:47;18.13;;;12.07;;
78290;SDS011;67543;45.494;9.100;2023-03-19T17:44:13;15.90;;;11.35;;
78290;SDS011;67543;45.494;9.100;2023-03-19T17:46:43;16.27;;;11.48;;
78290;SDS011;67543;45.494;9.100;2023-03-19T17:49:11;20.33;;;12.15;;
78290;SDS011;67543;45.494;9.100;2023-03-19T17:51:40;16.80;;;12.15;;
78290;SDS011;67543;45.494;9.100;2023-03-19T17:54:08;17.20;;;11.90;;
78290;SDS011;67543;45.494;9.100;2023-03-19T17:56:35;19.77;;;12.75;;
78290;SDS011;67543;45.494;9.100;2023-03-19T17:59:00;19.73;;;12.15;;
78290;SDS011;67543;45.494;9.100;2023-03-19T18:01:26;20.58;;;12.55;;
78290;SDS011;67543;45.494;9.100;2023-03-19T18:03:52;16.50;;;11.85;;
78290;SDS011;67543;45.494;9.100;2023-03-19T18:06:20;18.02;;;12.48;;
78290;SDS011;67543;45.494;9.100;2023-03-19T18:08:47;20.23;;;12.73;;
78290;SDS011;67543;45.494;9.100;2023-03-19T18:11:12;19.67;;;13.32;;
78290;SDS011;67543;45.494;9.100;2023-03-19T18:13:38;19.70;;;12.68;;
78290;SDS011;67543;45.494;9.100;2023-03-19T18:16:04;20.48;;;13.00;;
78290;SDS011;67543;45.494;9.100;2023-03-19T18:18:42;20.75;;;12.18;;
78290;SDS011;67543;45.494;9.100;2023-03-19T18:21:12;18.73;;;13.63;;
78290;SDS011;67543;45.494;9.100;2023-03-19T18:23:38;22.15;;;13.70;;
78290;SDS011;67543;45.494;9.100;2023-03-19T18:26:03;22.38;;;13.45;;
78290;SDS011;67543;45.494;9.100;2023-03-19T18:28:29;19.30;;;13.18;;
78290;SDS011;67543;45.494;9.100;2023-03-19T18:30:56;20.35;;;13.95;;
78290;SDS011;67543;45.494;9.100;2023-03-19T18:33:24;21.50;;;13.40;;
78290;SDS011;67543;45.494;9.100;2023-03-19T18:35:50;20.80;;;13.52;;
78290;SDS011;67543;45.494;9.100;2023-03-19T18:38:18;22.33;;;13.60;;
78290;SDS011;67543;45.494;9.100;2023-03-19T18:40:45;19.83;;;14.45;;
78290;SDS011;67543;45.494;9.100;2023-03-19T18:43:11;20.67;;;14.20;;
78290;SDS011;67543;45.494;9.100;2023-03-19T18:45:37;21.33;;;13.80;;
78290;SDS011;67543;45.494;9.100;2023-03-19T18:48:18;22.45;;;12.88;;
78290;SDS011;67543;45.494;9.100;2023-03-19T18:50:51;24.30;;;14.63;;
78290;SDS011;67543;45.494;9.100;2023-03-19T18:53:18;20.58;;;12.82;;
78290;SDS011;67543;45.494;9.100;2023-03-19T18:55:43;19.23;;;12.75;;
78290;SDS011;67543;45.494;9.100;2023-03-19T18:58:14;18.33;;;12.45;;
78290;SDS011;67543;45.494;9.100;2023-03-19T19:00:44;20.98;;;13.23;;
78290;SDS011;67543;45.494;9.100;2023-03-19T19:03:11;21.10;;;12.85;;
78290;SDS011;67543;45.494;9.100;2023-03-19T19:05:39;23.98;;;13.48;;
78290;SDS011;67543;45.494;9.100;2023-03-19T19:08:06;22.33;;;14.88;;
78290;SDS011;67543;45.494;9.100;2023-03-19T19:10:34;19.25;;;13.82;;
78290;SDS011;67543;45.494;9.100;2023-03-19T19:13:01;21.85;;;14.18;;
78290;SDS011;67543;45.494;9.100;2023-03-19T19:15:31;20.42;;;14.05;;
78290;SDS011;67543;45.494;9.100;2023-03-19T19:17:58;22.85;;;16.10;;
78290;SDS011;67543;45.494;9.100;2023-03-19T19:20:25;27.05;;;15.77;;
78290;SDS011;67543;45.494;9.100;2023-03-19T19:22:52;28.08;;;17.23;;
78290;SDS011;67543;45.494;9.100;2023-03-19T19:25:18;27.73;;;18.17;;
78290;SDS011;67543;45.494;9.100;2023-03-19T19:27:57;25.20;;;16.95;;
78290;SDS011;67543;45.494;9.100;2023-03-19T19:30:24;25.67;;;17.50;;
78290;SDS011;67543;45.494;9.100;2023-03-19T19:32:50;26.65;;;16.42;;
78290;SDS011;67543;45.494;9.100;2023-03-19T19:35:19;26.25;;;17.13;;
78290;SDS011;67543;45.494;9.100;2023-03-19T19:37:48;26.25;;;16.30;;
78290;SDS011;67543;45.494;9.100;2023-03-19T19:40:15;26.80;;;16.55;;
78290;SDS011;67543;45.494;9.100;2023-03-19T19:42:42;26.73;;;16.60;;
78290;SDS011;67543;45.494;9.100;2023-03-19T19:45:18;23.83;;;15.10;;
78290;SDS011;67543;45.494;9.100;2023-03-19T19:47:54;31.17;;;15.57;;
78290;SDS011;67543;45.494;9.100;2023-03-19T19:50:20;25.02;;;15.32;;
78290;SDS011;67543;45.494;9.100;2023-03-19T19:52:47;24.50;;;15.23;;
78290;SDS011;67543;45.494;9.100;2023-03-19T19:55:13;21.80;;;13.80;;
78290;SDS011;67543;45.494;9.100;2023-03-19T19:57:39;23.00;;;15.23;;
78290;SDS011;67543;45.494;9.100;2023-03-19T20:00:15;21.77;;;13.70;;
78290;SDS011;67543;45.494;9.100;2023-03-19T20:02:43;21.73;;;14.18;;
78290;SDS011;67543;45.494;9.100;2023-03-19T20:05:14;24.45;;;14.73;;
78290;SDS011;67543;45.494;9.100;2023-03-19T20:07:41;23.08;;;13.90;;
78290;SDS011;67543;45.494;9.100;2023-03-19T20:10:08;22.52;;;14.70;;
78290;SDS011;67543;45.494;9.100;2023-03-19T20:12:33;24.77;;;15.73;;
78290;SDS011;67543;45.494;9.100;2023-03-19T20:14:59;24.52;;;14.73;;
78290;SDS011;67543;45.494;9.100;2023-03-19T20:17:24;28.73;;;16.42;;
78290;SDS011;67543;45.494;9.100;2023-03-19T20:19:51;26.55;;;15.52;;
78290;SDS011;67543;45.494;9.100;2023-03-19T20:22:16;29.10;;;16.45;;
78290;SDS011;67543;45.494;9.100;2023-03-19T20:24:42;30.85;;;16.23;;
78290;SDS011;67543;45.494;9.100;2023-03-19T20:27:13;25.52;;;15.35;;
78290;SDS011;67543;45.494;9.100;2023-03-19T20:29:42;24.83;;;15.15;;
78290;SDS011;67543;45.494;9.100;2023-03-19T20:32:40;29.73;;;16.02;;
78290;SDS011;67543;45.494;9.100;2023-03-19T20:35:00;26.45;;;15.48;;
78290;SDS011;67543;45.494;9.100;2023-03-19T20:37:26;27.25;;;16.63;;
78290;SDS011;67543;45.494;9.100;2023-03-19T20:39:52;27.73;;;16.08;;
78290;SDS011;67543;45.494;9.100;2023-03-19T20:42:17;26.33;;;15.57;;
78290;SDS011;67543;45.494;9.100;2023-03-19T20:44:43;24.45;;;14.93;;
78290;SDS011;67543;45.494;9.100;2023-03-19T20:47:16;25.45;;;15.55;;
78290;SDS011;67543;45.494;9.100;2023-03-19T20:49:45;27.85;;;16.52;;
78290;SDS011;67543;45.494;9.100;2023-03-19T20:52:11;27.23;;;14.88;;
78290;SDS011;67543;45.494;9.100;2023-03-19T20:54:38;27.92;;;15.98;;
78290;SDS011;67543;45.494;9.100;2023-03-19T20:57:13;27.35;;;17.17;;
78290;SDS011;67543;45.494;9.100;2023-03-19T20:59:41;26.60;;;16.60;;
78290;SDS011;67543;45.494;9.100;2023-03-19T21:02:13;26.40;;;15.85;;
78290;SDS011;67543;45.494;9.100;2023-03-19T21:04:46;25.40;;;14.45;;
78290;SDS011;67543;45.494;9.100;2023-03-19T21:07:25;27.15;;;15.80;;
78290;SDS011;67543;45.494;9.100;2023-03-19T21:09:52;23.83;;;14.93;;
78290;SDS011;67543;45.494;9.100;2023-03-19T21:12:23;27.77;;;16.05;;
78290;SDS011;67543;45.494;9.100;2023-03-19T21:14:54;23.20;;;13.85;;
78290;SDS011;67543;45.494;9.100;2023-03-19T21:17:20;23.98;;;15.30;;
78290;SDS011;67543;45.494;9.100;2023-03-19T21:19:46;25.52;;;15.48;;
78290;SDS011;67543;45.494;9.100;2023-03-19T21:22:23;28.13;;;16.13;;
78290;SDS011;67543;45.494;9.100;2023-03-19T21:24:51;28.38;;;14.73;;
78290;SDS011;67543;45.494;9.100;2023-03-19T21:27:18;26.15;;;15.98;;
78290;SDS011;67543;45.494;9.100;2023-03-19T21:29:46;27.67;;;15.52;;
78290;SDS011;67543;45.494;9.100;2023-03-19T21:32:11;25.23;;;16.52;;
78290;SDS011;67543;45.494;9.100;2023-03-19T21:34:39;32.88;;;17.98;;
78290;SDS011;67543;45.494;9.100;2023-03-19T21:37:04;31.02;;;16.67;;
78290;SDS011;67543;45.494;9.100;2023-03-19T21:39:30;26.52;;;15.77;;
78290;SDS011;67543;45.494;9.100;2023-03-19T21:41:56;27.02;;;17.45;;
78290;SDS011;67543;45.494;9.100;2023-03-19T21:44:21;25.98;;;17.05;;
78290;SDS011;67543;45.494;9.100;2023-03-19T21:46:48;28.27;;;19.25;;
78290;SDS011;67543;45.494;9.100;2023-03-19T21:49:13;28.45;;;17.77;;
78290;SDS011;67543;45.494;9.100;2023-03-19T21:51:40;31.02;;;18.52;;
78290;SDS011;67543;45.494;9.100;2023-03-19T21:54:08;29.40;;;16.92;;
78290;SDS011;67543;45.494;9.100;2023-03-19T21:56:35;28.88;;;17.48;;
78290;SDS011;67543;45.494;9.100;2023-03-19T21:59:14;32.90;;;19.02;;
78290;SDS011;67543;45.494;9.100;2023-03-19T22:01:42;29.20;;;17.40;;
78290;SDS011;67543;45.494;9.100;2023-03-19T22:04:07;29.35;;;18.67;;
78290;SDS011;67543;45.494;9.100;2023-03-19T22:06:33;30.65;;;18.98;;
78290;SDS011;67543;45.494;9.100;2023-03-19T22:08:58;31.90;;;20.07;;
78290;SDS011;67543;45.494;9.100;2023-03-19T22:16:45;28.77;;;17.20;;
78290;SDS011;67543;45.494;9.100;2023-03-19T22:19:12;29.75;;;18.08;;
78290;SDS011;67543;45.494;9.100;2023-03-19T22:21:38;27.30;;;17.25;;
78290;SDS011;67543;45.494;9.100;2023-03-19T22:24:03;28.50;;;17.73;;
78290;SDS011;67543;45.494;9.100;2023-03-19T22:26:31;28.90;;;18.38;;
78290;SDS011;67543;45.494;9.100;2023-03-19T22:28:59;31.90;;;18.25;;
78290;SDS011;67543;45.494;9.100;2023-03-19T22:31:26;28.13;;;19.10;;
78290;SDS011;67543;45.494;9.100;2023-03-19T22:33:52;33.47;;;19.85;;
78290;SDS011;67543;45.494;9.100;2023-03-19T22:36:17;29.40;;;17.90;;
78290;SDS011;67543;45.494;9.100;2023-03-19T22:38:42;27.30;;;18.33;;
78290;SDS011;67543;45.494;9.100;2023-03-19T22:41:18;27.15;;;18.77;;
78290;SDS011;67543;45.494;9.100;2023-03-19T22:43:50;27.13;;;16.98;;
78290;SDS011;67543;45.494;9.100;2023-03-19T22:46:16;29.77;;;18.17;;
78290;SDS011;67543;45.494;9.100;2023-03-19T22:48:44;29.85;;;18.63;;
78290;SDS011;67543;45.494;9.100;2023-03-19T22:51:13;29.65;;;18.33;;
78290;SDS011;67543;45.494;9.100;2023-03-19T22:53:41;26.27;;;17.00;;
78290;SDS011;67543;45.494;9.100;2023-03-19T22:56:08;27.75;;;17.75;;
